Time,TemperatureF,DewpointF,PressureIn,WindDirection,WindDirectionDegrees,WindSpeedMPH,WindSpeedGustMPH,Humidity,HourlyPrecipIn,Conditions,Clouds,dailyrainin,SolarRadiationWatts/m^2,SoftwareType,DateUTC
2013-09-17 00:02:00,62.0,32.0,-100.00,SE,129,5.0,8.0,32,-99.99,,,-99.99,0.000000,,2013-09-17 07:02:00,
2013-09-17 00:43:00,62.0,32.0,-100.00,SE,129,5.0,8.0,32,-99.99,,,-99.99,0.000000,,2013-09-17 07:43:00,
2013-09-17 00:52:00,62.0,32.0,-100.00,SE,129,5.0,8.0,32,-99.99,,,-99.99,0.000000,,2013-09-17 07:52:00,
2013-09-17 01:02:00,63.0,29.0,-100.00,SE,134,5.0,11.0,28,0.00,,,0.00,0.000000,,2013-09-17 08:02:00,
2013-09-17 01:42:00,63.0,29.0,-100.00,SE,134,5.0,11.0,28,0.00,,,0.00,0.000000,,2013-09-17 08:42:00,
2013-09-17 01:52:00,63.0,29.0,-100.00,SE,134,5.0,11.0,28,0.00,,,0.00,0.000000,,2013-09-17 08:52:00,
2013-09-17 02:02:00,61.0,31.0,-100.00,East,95,4.0,11.0,32,0.00,,,0.00,0.000000,,2013-09-17 09:02:00,
2013-09-17 02:22:00,61.0,31.0,-100.00,East,95,4.0,11.0,32,0.00,,,0.00,0.000000,,2013-09-17 09:22:00,
2013-09-17 02:33:00,61.0,31.0,-100.00,East,95,4.0,11.0,32,0.00,,,0.00,0.000000,,2013-09-17 09:33:00,
2013-09-17 02:43:00,61.0,31.0,-100.00,East,95,4.0,11.0,32,0.00,,,0.00,0.000000,,2013-09-17 09:43:00,
2013-09-17 02:53:00,61.0,31.0,-100.00,East,95,4.0,11.0,32,0.00,,,0.00,0.000000,,2013-09-17 09:53:00,
2013-09-17 04:02:00,63.0,30.0,-100.00,East,93,3.0,10.0,29,-99.99,,,0.00,0.000000,,2013-09-17 11:02:00,
2013-09-17 04:22:00,63.0,30.0,-100.00,East,93,3.0,10.0,29,-99.99,,,0.00,0.000000,,2013-09-17 11:22:00,
2013-09-17 04:33:00,63.0,30.0,-100.00,East,93,3.0,10.0,29,-99.99,,,0.00,0.000000,,2013-09-17 11:33:00,
2013-09-17 04:43:00,63.0,30.0,-100.00,East,93,3.0,10.0,29,-99.99,,,0.00,0.000000,,2013-09-17 11:43:00,
2013-09-17 04:52:00,63.0,30.0,-100.00,East,93,3.0,10.0,29,-99.99,,,0.00,0.000000,,2013-09-17 11:52:00,
2013-09-17 05:02:00,64.0,32.0,-100.00,NNE,29,4.0,9.0,30,0.00,,,-99.99,0.000000,,2013-09-17 12:02:00,
2013-09-17 05:42:00,64.0,32.0,-100.00,NNE,29,4.0,9.0,30,0.00,,,-99.99,0.000000,,2013-09-17 12:42:00,
2013-09-17 05:52:00,64.0,32.0,-100.00,NNE,29,4.0,9.0,30,0.00,,,-99.99,0.000000,,2013-09-17 12:52:00,
2013-09-17 06:02:00,63.0,29.0,-100.00,ESE,121,5.0,13.0,27,0.00,,,0.00,0.000000,,2013-09-17 13:02:00,
2013-09-17 06:42:00,63.0,29.0,-100.00,ESE,121,5.0,13.0,27,0.00,,,0.00,0.000000,,2013-09-17 13:42:00,
2013-09-17 06:52:00,63.0,29.0,-100.00,ESE,121,5.0,13.0,27,0.00,,,0.00,0.000000,,2013-09-17 13:52:00,
2013-09-17 07:02:00,65.0,26.0,-100.00,SSE,163,10.0,16.0,23,0.00,,,0.00,6.000000,,2013-09-17 14:02:00,
2013-09-17 07:42:00,65.0,26.0,-100.00,SSE,163,10.0,16.0,23,0.00,,,0.00,6.000000,,2013-09-17 14:42:00,
2013-09-17 07:52:00,65.0,26.0,-100.00,SSE,163,10.0,16.0,23,0.00,,,0.00,6.000000,,2013-09-17 14:52:00,
2013-09-17 08:02:00,69.0,29.0,-100.00,SSE,149,9.0,16.0,22,0.00,,,0.00,148.000000,,2013-09-17 15:02:00,
2013-09-17 08:22:00,69.0,29.0,-100.00,SSE,149,9.0,16.0,22,0.00,,,0.00,148.000000,,2013-09-17 15:22:00,
2013-09-17 08:34:00,69.0,29.0,-100.00,SSE,149,9.0,16.0,22,0.00,,,0.00,148.000000,,2013-09-17 15:34:00,
2013-09-17 08:44:00,69.0,29.0,-100.00,SSE,149,9.0,16.0,22,0.00,,,0.00,148.000000,,2013-09-17 15:44:00,
2013-09-17 08:53:00,69.0,29.0,-100.00,SSE,149,9.0,16.0,22,0.00,,,0.00,148.000000,,2013-09-17 15:53:00,
2013-09-17 09:02:00,72.0,29.0,-100.00,SSE,147,8.0,20.0,20,0.00,,,0.00,410.000000,,2013-09-17 16:02:00,
2013-09-17 09:23:00,72.0,29.0,-100.00,SSE,147,8.0,20.0,20,0.00,,,0.00,410.000000,,2013-09-17 16:23:00,
2013-09-17 09:32:00,72.0,29.0,-100.00,SSE,147,8.0,20.0,20,0.00,,,0.00,410.000000,,2013-09-17 16:32:00,
2013-09-17 09:42:00,72.0,29.0,-100.00,SSE,147,8.0,20.0,20,0.00,,,0.00,410.000000,,2013-09-17 16:42:00,
2013-09-17 09:54:00,72.0,29.0,-100.00,SSE,147,8.0,20.0,20,0.00,,,0.00,410.000000,,2013-09-17 16:54:00,
2013-09-17 10:02:00,74.0,30.0,-100.00,SSE,160,11.0,22.0,20,0.00,,,0.00,653.000000,,2013-09-17 17:02:00,
2013-09-17 10:43:00,74.0,30.0,-100.00,SSE,160,11.0,22.0,20,0.00,,,0.00,653.000000,,2013-09-17 17:43:00,
2013-09-17 10:53:00,74.0,30.0,-100.00,SSE,160,11.0,22.0,20,0.00,,,0.00,653.000000,,2013-09-17 17:53:00,
2013-09-17 11:02:00,75.0,32.0,-100.00,SE,137,12.0,22.0,21,0.00,,,0.00,854.000000,,2013-09-17 18:02:00,
2013-09-17 11:22:00,75.0,32.0,-100.00,SE,137,12.0,22.0,21,0.00,,,0.00,854.000000,,2013-09-17 18:22:00,
2013-09-17 11:32:00,75.0,32.0,-100.00,SE,137,12.0,22.0,21,0.00,,,0.00,854.000000,,2013-09-17 18:32:00,
2013-09-17 11:42:00,75.0,32.0,-100.00,SE,137,12.0,22.0,21,0.00,,,0.00,854.000000,,2013-09-17 18:42:00,
2013-09-17 11:52:00,75.0,32.0,-100.00,SE,137,12.0,22.0,21,0.00,,,0.00,854.000000,,2013-09-17 18:52:00,
2013-09-17 12:02:00,75.0,32.0,-100.00,SE,141,12.0,22.0,21,0.00,,,0.00,995.000000,,2013-09-17 19:02:00,
2013-09-17 12:42:00,75.0,32.0,-100.00,SE,141,12.0,22.0,21,0.00,,,0.00,995.000000,,2013-09-17 19:42:00,
2013-09-17 12:52:00,75.0,32.0,-100.00,SE,141,12.0,22.0,21,0.00,,,0.00,995.000000,,2013-09-17 19:52:00,
2013-09-17 13:22:00,76.0,34.0,-100.00,SSE,164,15.0,23.0,22,0.00,,,0.00,1063.000000,,2013-09-17 20:22:00,
2013-09-17 13:32:00,76.0,34.0,-100.00,SSE,164,15.0,23.0,22,0.00,,,0.00,1063.000000,,2013-09-17 20:32:00,
2013-09-17 13:42:00,76.0,34.0,-100.00,SSE,164,15.0,23.0,22,0.00,,,0.00,1063.000000,,2013-09-17 20:42:00,
2013-09-17 13:52:00,76.0,34.0,-100.00,SSE,164,15.0,23.0,22,0.00,,,0.00,1063.000000,,2013-09-17 20:52:00,
2013-09-17 14:01:00,76.0,34.0,-100.00,SSE,164,15.0,23.0,22,0.00,,,0.00,1063.000000,,2013-09-17 21:01:00,
2013-09-17 14:02:00,75.0,31.0,-100.00,SE,137,15.0,26.0,20,0.00,,,0.00,1058.000000,,2013-09-17 21:02:00,
2013-09-17 14:22:00,75.0,31.0,-100.00,SE,137,15.0,26.0,20,0.00,,,0.00,1058.000000,,2013-09-17 21:22:00,
2013-09-17 14:34:00,75.0,31.0,-100.00,SE,137,15.0,26.0,20,0.00,,,0.00,1058.000000,,2013-09-17 21:34:00,
2013-09-17 14:44:00,75.0,31.0,-100.00,SE,137,15.0,26.0,20,0.00,,,0.00,1058.000000,,2013-09-17 21:44:00,
2013-09-17 14:54:00,75.0,31.0,-100.00,SE,137,15.0,26.0,20,0.00,,,0.00,1058.000000,,2013-09-17 21:54:00,
2013-09-17 15:02:00,76.0,34.0,-100.00,SSE,156,14.0,27.0,22,0.00,,,0.00,976.000000,,2013-09-17 22:02:00,
2013-09-17 15:44:00,76.0,34.0,-100.00,SSE,156,14.0,27.0,22,0.00,,,0.00,976.000000,,2013-09-17 22:44:00,
2013-09-17 15:53:00,76.0,34.0,-100.00,SSE,156,14.0,27.0,22,0.00,,,0.00,976.000000,,2013-09-17 22:53:00,
2013-09-17 16:02:00,75.0,40.0,-100.00,SSE,151,11.0,23.0,28,0.00,,,0.00,818.000000,,2013-09-17 23:02:00,
2013-09-17 16:42:00,75.0,40.0,-100.00,SSE,151,11.0,23.0,28,0.00,,,0.00,818.000000,,2013-09-17 23:42:00,
2013-09-17 16:52:00,75.0,40.0,-100.00,SSE,151,11.0,23.0,28,0.00,,,0.00,818.000000,,2013-09-17 23:52:00,
2013-09-17 17:42:00,74.0,42.0,-100.00,SE,144,10.0,21.0,32,0.00,,,0.00,604.000000,,2013-09-18 00:42:00,
2013-09-17 17:52:00,74.0,42.0,-100.00,SE,144,10.0,21.0,32,0.00,,,0.00,604.000000,,2013-09-18 00:52:00,
2013-09-17 18:01:00,74.0,42.0,-100.00,SE,144,10.0,21.0,32,0.00,,,0.00,604.000000,,2013-09-18 01:01:00,
2013-09-17 18:02:00,70.0,44.0,-100.00,SE,146,12.0,20.0,39,0.00,,,0.00,315.000000,,2013-09-18 01:02:00,
2013-09-17 18:22:00,70.0,44.0,-100.00,SE,146,12.0,20.0,39,0.00,,,0.00,315.000000,,2013-09-18 01:22:00,
2013-09-17 18:32:00,70.0,44.0,-100.00,SE,146,12.0,20.0,39,0.00,,,0.00,315.000000,,2013-09-18 01:32:00,
2013-09-17 18:42:00,70.0,44.0,-100.00,SE,146,12.0,20.0,39,0.00,,,0.00,315.000000,,2013-09-18 01:42:00,
2013-09-17 18:52:00,70.0,44.0,-100.00,SE,146,12.0,20.0,39,0.00,,,0.00,315.000000,,2013-09-18 01:52:00,
2013-09-17 19:02:00,65.0,44.0,-100.00,SSE,153,8.0,19.0,47,0.00,,,0.00,71.000000,,2013-09-18 02:02:00,
2013-09-17 19:22:00,65.0,44.0,-100.00,SSE,153,8.0,19.0,47,0.00,,,0.00,71.000000,,2013-09-18 02:22:00,
2013-09-17 19:32:00,65.0,44.0,-100.00,SSE,153,8.0,19.0,47,0.00,,,0.00,71.000000,,2013-09-18 02:32:00,
2013-09-17 19:43:00,65.0,44.0,-100.00,SSE,153,8.0,19.0,47,0.00,,,0.00,71.000000,,2013-09-18 02:43:00,
2013-09-17 19:52:00,65.0,44.0,-100.00,SSE,153,8.0,19.0,47,0.00,,,0.00,71.000000,,2013-09-18 02:52:00,
2013-09-17 20:02:00,63.0,40.0,-100.00,SE,142,8.0,15.0,42,0.00,,,0.00,0.000000,,2013-09-18 03:02:00,
2013-09-17 20:23:00,63.0,40.0,-100.00,SE,142,8.0,15.0,42,0.00,,,0.00,0.000000,,2013-09-18 03:23:00,
2013-09-17 20:35:00,63.0,40.0,-100.00,SE,142,8.0,15.0,42,0.00,,,0.00,0.000000,,2013-09-18 03:35:00,
2013-09-17 20:44:00,63.0,40.0,-100.00,SE,142,8.0,15.0,42,0.00,,,0.00,0.000000,,2013-09-18 03:44:00,
2013-09-17 20:55:00,63.0,40.0,-100.00,SE,142,8.0,15.0,42,0.00,,,0.00,0.000000,,2013-09-18 03:55:00,
2013-09-17 21:02:00,63.0,36.0,-100.00,SSE,167,8.0,16.0,37,0.00,,,0.00,0.000000,,2013-09-18 04:02:00,
2013-09-17 21:24:00,63.0,36.0,-100.00,SSE,167,8.0,16.0,37,0.00,,,0.00,0.000000,,2013-09-18 04:24:00,
2013-09-17 21:34:00,63.0,36.0,-100.00,SSE,167,8.0,16.0,37,0.00,,,0.00,0.000000,,2013-09-18 04:34:00,
2013-09-17 21:44:00,63.0,36.0,-100.00,SSE,167,8.0,16.0,37,0.00,,,0.00,0.000000,,2013-09-18 04:44:00,
2013-09-17 21:54:00,63.0,36.0,-100.00,SSE,167,8.0,16.0,37,0.00,,,0.00,0.000000,,2013-09-18 04:54:00,
2013-09-17 22:02:00,62.0,39.0,-100.00,South,170,9.0,13.0,42,0.00,,,0.00,0.000000,,2013-09-18 05:02:00,
2013-09-17 22:23:00,62.0,39.0,-100.00,South,170,9.0,13.0,42,0.00,,,0.00,0.000000,,2013-09-18 05:23:00,
2013-09-17 22:33:00,62.0,39.0,-100.00,South,170,9.0,13.0,42,0.00,,,0.00,0.000000,,2013-09-18 05:33:00,
2013-09-17 22:43:00,62.0,39.0,-100.00,South,170,9.0,13.0,42,0.00,,,0.00,0.000000,,2013-09-18 05:43:00,
2013-09-17 22:53:00,62.0,39.0,-100.00,South,170,9.0,13.0,42,0.00,,,0.00,0.000000,,2013-09-18 05:53:00,
2013-09-17 23:22:00,63.0,41.0,-100.00,SE,140,11.0,15.0,45,0.00,,,0.00,0.000000,,2013-09-18 06:22:00,
2013-09-17 23:33:00,63.0,41.0,-100.00,SE,140,11.0,15.0,45,0.00,,,0.00,0.000000,,2013-09-18 06:33:00,
2013-09-17 23:42:00,63.0,41.0,-100.00,SE,140,11.0,15.0,45,0.00,,,0.00,0.000000,,2013-09-18 06:42:00,
2013-09-17 23:52:00,63.0,41.0,-100.00,SE,140,11.0,15.0,45,0.00,,,0.00,0.000000,,2013-09-18 06:52:00,